sensor_id;sensor_type;location;lat;lon;timestamp;temperature;humidity
65568;DHT22;52211;50.154;8.682;2022-09-19T00:01:56;11.50;66.10
65568;DHT22;52211;50.154;8.682;2022-09-19T00:04:30;11.50;66.20
65568;DHT22;52211;50.154;8.682;2022-09-19T00:06:59;11.50;66.20
65568;DHT22;52211;50.154;8.682;2022-09-19T00:09:32;11.50;66.10
65568;DHT22;52211;50.154;8.682;2022-09-19T00:12:02;11.60;66.20
65568;DHT22;52211;50.154;8.682;2022-09-19T00:14:32;11.60;66.20
65568;DHT22;52211;50.154;8.682;2022-09-19T00:17:07;11.60;66.20
65568;DHT22;52211;50.154;8.682;2022-09-19T00:19:37;11.60;66.30
65568;DHT22;52211;50.154;8.682;2022-09-19T00:22:08;11.60;66.20
65568;DHT22;52211;50.154;8.682;2022-09-19T00:24:36;11.60;66.20
65568;DHT22;52211;50.154;8.682;2022-09-19T00:27:17;11.70;66.20
65568;DHT22;52211;50.154;8.682;2022-09-19T00:29:51;11.70;66.30
65568;DHT22;52211;50.154;8.682;2022-09-19T00:32:23;11.70;66.20
65568;DHT22;52211;50.154;8.682;2022-09-19T00:34:51;11.70;66.20
65568;DHT22;52211;50.154;8.682;2022-09-19T00:37:22;11.70;66.20
65568;DHT22;52211;50.154;8.682;2022-09-19T00:39:50;11.70;66.20
65568;DHT22;52211;50.154;8.682;2022-09-19T00:42:23;11.70;66.30
65568;DHT22;52211;50.154;8.682;2022-09-19T00:45:00;11.70;66.30
65568;DHT22;52211;50.154;8.682;2022-09-19T00:47:42;11.70;66.40
65568;DHT22;52211;50.154;8.682;2022-09-19T00:50:18;11.80;66.40
65568;DHT22;52211;50.154;8.682;2022-09-19T00:53:00;11.80;66.40
65568;DHT22;52211;50.154;8.682;2022-09-19T00:55:33;11.80;66.40
65568;DHT22;52211;50.154;8.682;2022-09-19T01:01:04;11.90;66.50
65568;DHT22;52211;50.154;8.682;2022-09-19T01:03:31;11.90;66.40
65568;DHT22;52211;50.154;8.682;2022-09-19T01:14:24;12.00;66.50
65568;DHT22;52211;50.154;8.682;2022-09-19T01:17:20;11.90;66.50
65568;DHT22;52211;50.154;8.682;2022-09-19T01:25:52;12.00;66.50
65568;DHT22;52211;50.154;8.682;2022-09-19T01:29:03;12.00;66.50
65568;DHT22;52211;50.154;8.682;2022-09-19T01:31:37;12.00;66.50
65568;DHT22;52211;50.154;8.682;2022-09-19T01:37:05;12.00;66.80
65568;DHT22;52211;50.154;8.682;2022-09-19T01:39:39;12.00;66.70
65568;DHT22;52211;50.154;8.682;2022-09-19T01:42:12;12.00;66.60
65568;DHT22;52211;50.154;8.682;2022-09-19T01:44:41;12.10;66.70
65568;DHT22;52211;50.154;8.682;2022-09-19T01:50:36;12.10;66.80
65568;DHT22;52211;50.154;8.682;2022-09-19T01:56:10;12.20;66.90
65568;DHT22;52211;50.154;8.682;2022-09-19T02:04:48;12.30;66.80
65568;DHT22;52211;50.154;8.682;2022-09-19T02:07:26;12.30;66.70
65568;DHT22;52211;50.154;8.682;2022-09-19T02:10:09;12.30;66.70
65568;DHT22;52211;50.154;8.682;2022-09-19T02:12:43;12.30;66.80
65568;DHT22;52211;50.154;8.682;2022-09-19T02:15:17;12.40;66.70
65568;DHT22;52211;50.154;8.682;2022-09-19T02:18:02;12.40;66.80
65568;DHT22;52211;50.154;8.682;2022-09-19T02:20:37;12.40;66.90
65568;DHT22;52211;50.154;8.682;2022-09-19T02:23:21;12.50;66.80
65568;DHT22;52211;50.154;8.682;2022-09-19T02:25:53;12.50;66.90
65568;DHT22;52211;50.154;8.682;2022-09-19T02:28:32;12.60;66.80
65568;DHT22;52211;50.154;8.682;2022-09-19T02:31:08;12.60;66.70
65568;DHT22;52211;50.154;8.682;2022-09-19T02:33:36;12.60;66.70
65568;DHT22;52211;50.154;8.682;2022-09-19T02:38:58;12.70;66.90
65568;DHT22;52211;50.154;8.682;2022-09-19T02:41:37;12.70;66.80
65568;DHT22;52211;50.154;8.682;2022-09-19T02:44:35;12.70;66.70
65568;DHT22;52211;50.154;8.682;2022-09-19T02:50:20;12.80;66.60
65568;DHT22;52211;50.154;8.682;2022-09-19T02:53:05;12.80;66.50
65568;DHT22;52211;50.154;8.682;2022-09-19T02:55:43;12.80;66.50
65568;DHT22;52211;50.154;8.682;2022-09-19T02:58:17;12.90;66.70
65568;DHT22;52211;50.154;8.682;2022-09-19T03:00:53;12.90;66.50
65568;DHT22;52211;50.154;8.682;2022-09-19T03:03:32;12.90;66.50
65568;DHT22;52211;50.154;8.682;2022-09-19T03:06:25;12.90;67.10
65568;DHT22;52211;50.154;8.682;2022-09-19T03:08:58;12.90;66.50
65568;DHT22;52211;50.154;8.682;2022-09-19T03:11:34;12.90;66.50
65568;DHT22;52211;50.154;8.682;2022-09-19T03:14:04;12.90;66.50
65568;DHT22;52211;50.154;8.682;2022-09-19T03:16:35;12.90;66.50
65568;DHT22;52211;50.154;8.682;2022-09-19T03:19:08;12.90;66.50
65568;DHT22;52211;50.154;8.682;2022-09-19T03:21:36;12.90;66.50
65568;DHT22;52211;50.154;8.682;2022-09-19T03:24:10;12.90;66.50
65568;DHT22;52211;50.154;8.682;2022-09-19T03:26:39;12.90;66.50
65568;DHT22;52211;50.154;8.682;2022-09-19T03:29:11;12.90;66.50
65568;DHT22;52211;50.154;8.682;2022-09-19T03:31:42;13.00;66.60
65568;DHT22;52211;50.154;8.682;2022-09-19T03:34:12;13.00;66.60
65568;DHT22;52211;50.154;8.682;2022-09-19T03:36:39;12.90;66.50
65568;DHT22;52211;50.154;8.682;2022-09-19T03:39:09;13.00;66.60
65568;DHT22;52211;50.154;8.682;2022-09-19T03:41:38;13.00;66.70
65568;DHT22;52211;50.154;8.682;2022-09-19T03:44:08;13.00;66.70
65568;DHT22;52211;50.154;8.682;2022-09-19T03:46:38;13.00;66.70
65568;DHT22;52211;50.154;8.682;2022-09-19T03:49:05;13.00;66.80
65568;DHT22;52211;50.154;8.682;2022-09-19T03:51:37;13.00;66.80
65568;DHT22;52211;50.154;8.682;2022-09-19T03:54:05;13.00;66.90
65568;DHT22;52211;50.154;8.682;2022-09-19T03:56:32;13.00;66.80
65568;DHT22;52211;50.154;8.682;2022-09-19T03:59:01;13.00;66.80
65568;DHT22;52211;50.154;8.682;2022-09-19T04:01:32;13.00;66.80
65568;DHT22;52211;50.154;8.682;2022-09-19T04:04:02;13.00;66.80
65568;DHT22;52211;50.154;8.682;2022-09-19T04:06:29;13.00;66.80
65568;DHT22;52211;50.154;8.682;2022-09-19T04:08:56;13.00;66.80
65568;DHT22;52211;50.154;8.682;2022-09-19T04:11:25;13.10;66.90
65568;DHT22;52211;50.154;8.682;2022-09-19T04:13:53;13.10;66.90
65568;DHT22;52211;50.154;8.682;2022-09-19T04:16:22;13.10;66.80
65568;DHT22;52211;50.154;8.682;2022-09-19T04:18:50;13.10;66.80
65568;DHT22;52211;50.154;8.682;2022-09-19T04:21:20;13.10;66.70
65568;DHT22;52211;50.154;8.682;2022-09-19T04:23:47;13.10;66.70
65568;DHT22;52211;50.154;8.682;2022-09-19T04:26:16;13.20;66.70
65568;DHT22;52211;50.154;8.682;2022-09-19T04:28:43;13.20;66.70
65568;DHT22;52211;50.154;8.682;2022-09-19T04:31:13;13.20;66.60
65568;DHT22;52211;50.154;8.682;2022-09-19T04:33:42;13.20;66.60
65568;DHT22;52211;50.154;8.682;2022-09-19T04:36:11;13.20;66.70
65568;DHT22;52211;50.154;8.682;2022-09-19T04:38:42;13.20;66.60
65568;DHT22;52211;50.154;8.682;2022-09-19T04:41:09;13.20;66.70
65568;DHT22;52211;50.154;8.682;2022-09-19T04:43:40;13.20;66.60
65568;DHT22;52211;50.154;8.682;2022-09-19T04:46:07;13.20;66.60
65568;DHT22;52211;50.154;8.682;2022-09-19T04:48:36;13.20;66.70
65568;DHT22;52211;50.154;8.682;2022-09-19T04:51:03;13.30;66.70
65568;DHT22;52211;50.154;8.682;2022-09-19T04:53:33;13.20;66.70
65568;DHT22;52211;50.154;8.682;2022-09-19T04:56:05;13.30;66.70
65568;DHT22;52211;50.154;8.682;2022-09-19T04:58:32;13.20;66.60
65568;DHT22;52211;50.154;8.682;2022-09-19T05:01:06;13.30;66.70
65568;DHT22;52211;50.154;8.682;2022-09-19T05:03:34;13.30;66.70
65568;DHT22;52211;50.154;8.682;2022-09-19T05:06:03;13.30;66.70
65568;DHT22;52211;50.154;8.682;2022-09-19T05:08:33;13.30;66.70
65568;DHT22;52211;50.154;8.682;2022-09-19T05:11:02;13.30;66.70
65568;DHT22;52211;50.154;8.682;2022-09-19T05:13:33;13.30;66.70
65568;DHT22;52211;50.154;8.682;2022-09-19T05:16:04;13.30;66.70
65568;DHT22;52211;50.154;8.682;2022-09-19T05:18:36;13.30;66.70
65568;DHT22;52211;50.154;8.682;2022-09-19T05:21:06;13.30;66.70
65568;DHT22;52211;50.154;8.682;2022-09-19T05:23:36;13.30;66.70
65568;DHT22;52211;50.154;8.682;2022-09-19T05:26:10;13.30;66.70
65568;DHT22;52211;50.154;8.682;2022-09-19T05:28:42;13.30;66.70
65568;DHT22;52211;50.154;8.682;2022-09-19T05:31:16;13.30;66.70
65568;DHT22;52211;50.154;8.682;2022-09-19T05:33:45;13.30;66.70
65568;DHT22;52211;50.154;8.682;2022-09-19T05:36:13;13.30;66.70
65568;DHT22;52211;50.154;8.682;2022-09-19T05:38:40;13.30;66.70
65568;DHT22;52211;50.154;8.682;2022-09-19T05:41:13;13.30;66.70
65568;DHT22;52211;50.154;8.682;2022-09-19T05:43:42;13.30;66.70
65568;DHT22;52211;50.154;8.682;2022-09-19T05:46:09;13.30;66.70
65568;DHT22;52211;50.154;8.682;2022-09-19T05:48:36;13.30;66.70
65568;DHT22;52211;50.154;8.682;2022-09-19T05:51:08;13.30;66.70
65568;DHT22;52211;50.154;8.682;2022-09-19T05:53:34;13.30;66.70
65568;DHT22;52211;50.154;8.682;2022-09-19T05:56:19;13.30;66.70
65568;DHT22;52211;50.154;8.682;2022-09-19T05:58:47;13.40;66.70
65568;DHT22;52211;50.154;8.682;2022-09-19T06:01:16;13.40;66.70
65568;DHT22;52211;50.154;8.682;2022-09-19T06:03:50;13.40;66.70
65568;DHT22;52211;50.154;8.682;2022-09-19T06:06:20;13.40;66.70
65568;DHT22;52211;50.154;8.682;2022-09-19T06:08:53;13.40;66.70
65568;DHT22;52211;50.154;8.682;2022-09-19T06:11:23;13.40;66.70
65568;DHT22;52211;50.154;8.682;2022-09-19T06:13:50;13.40;66.70
65568;DHT22;52211;50.154;8.682;2022-09-19T06:16:36;13.40;66.70
65568;DHT22;52211;50.154;8.682;2022-09-19T06:19:03;13.40;66.60
65568;DHT22;52211;50.154;8.682;2022-09-19T06:21:34;13.40;66.60
65568;DHT22;52211;50.154;8.682;2022-09-19T06:24:04;13.40;66.60
65568;DHT22;52211;50.154;8.682;2022-09-19T06:26:34;13.40;66.60
65568;DHT22;52211;50.154;8.682;2022-09-19T06:29:01;13.40;66.60
65568;DHT22;52211;50.154;8.682;2022-09-19T06:31:30;13.40;66.60
65568;DHT22;52211;50.154;8.682;2022-09-19T06:33:57;13.40;66.60
65568;DHT22;52211;50.154;8.682;2022-09-19T06:36:28;13.40;66.60
65568;DHT22;52211;50.154;8.682;2022-09-19T06:38:57;13.40;66.70
65568;DHT22;52211;50.154;8.682;2022-09-19T06:41:24;13.40;66.70
65568;DHT22;52211;50.154;8.682;2022-09-19T06:43:53;13.40;66.70
65568;DHT22;52211;50.154;8.682;2022-09-19T06:46:22;13.50;66.80
65568;DHT22;52211;50.154;8.682;2022-09-19T06:48:49;13.50;66.80
65568;DHT22;52211;50.154;8.682;2022-09-19T06:51:16;13.60;67.00
65568;DHT22;52211;50.154;8.682;2022-09-19T06:53:48;13.70;67.10
65568;DHT22;52211;50.154;8.682;2022-09-19T06:56:15;13.80;67.10
65568;DHT22;52211;50.154;8.682;2022-09-19T06:58:42;13.90;67.10
65568;DHT22;52211;50.154;8.682;2022-09-19T07:01:11;14.00;67.00
65568;DHT22;52211;50.154;8.682;2022-09-19T07:03:39;14.00;66.90
65568;DHT22;52211;50.154;8.682;2022-09-19T07:06:08;14.10;66.70
65568;DHT22;52211;50.154;8.682;2022-09-19T07:08:37;14.20;66.70
65568;DHT22;52211;50.154;8.682;2022-09-19T07:11:04;14.30;66.60
65568;DHT22;52211;50.154;8.682;2022-09-19T07:13:33;14.40;66.50
65568;DHT22;52211;50.154;8.682;2022-09-19T07:16:01;14.40;66.30
65568;DHT22;52211;50.154;8.682;2022-09-19T07:18:30;14.40;66.20
65568;DHT22;52211;50.154;8.682;2022-09-19T07:21:03;14.50;66.10
65568;DHT22;52211;50.154;8.682;2022-09-19T07:23:32;14.50;66.10
65568;DHT22;52211;50.154;8.682;2022-09-19T07:26:03;14.50;66.00
65568;DHT22;52211;50.154;8.682;2022-09-19T07:28:30;14.50;65.90
65568;DHT22;52211;50.154;8.682;2022-09-19T07:31:01;14.50;65.90
65568;DHT22;52211;50.154;8.682;2022-09-19T07:33:29;14.50;66.00
65568;DHT22;52211;50.154;8.682;2022-09-19T07:36:01;14.50;66.00
65568;DHT22;52211;50.154;8.682;2022-09-19T07:38:33;14.50;66.00
65568;DHT22;52211;50.154;8.682;2022-09-19T07:41:01;14.50;66.00
65568;DHT22;52211;50.154;8.682;2022-09-19T07:43:32;14.50;65.90
65568;DHT22;52211;50.154;8.682;2022-09-19T07:46:03;14.50;65.90
65568;DHT22;52211;50.154;8.682;2022-09-19T07:48:31;14.50;66.10
65568;DHT22;52211;50.154;8.682;2022-09-19T07:51:04;14.60;66.30
65568;DHT22;52211;50.154;8.682;2022-09-19T07:53:35;14.60;66.30
65568;DHT22;52211;50.154;8.682;2022-09-19T07:56:02;14.70;66.30
65568;DHT22;52211;50.154;8.682;2022-09-19T07:58:30;14.70;66.20
65568;DHT22;52211;50.154;8.682;2022-09-19T08:01:01;14.90;66.30
65568;DHT22;52211;50.154;8.682;2022-09-19T08:03:30;14.90;66.30
65568;DHT22;52211;50.154;8.682;2022-09-19T08:06:00;15.00;66.20
65568;DHT22;52211;50.154;8.682;2022-09-19T08:08:31;15.10;66.00
65568;DHT22;52211;50.154;8.682;2022-09-19T08:10:58;15.20;65.80
65568;DHT22;52211;50.154;8.682;2022-09-19T08:13:28;15.30;65.70
65568;DHT22;52211;50.154;8.682;2022-09-19T08:15:55;15.30;65.50
65568;DHT22;52211;50.154;8.682;2022-09-19T08:18:32;15.40;65.40
65568;DHT22;52211;50.154;8.682;2022-09-19T08:21:01;15.30;65.30
65568;DHT22;52211;50.154;8.682;2022-09-19T08:23:30;15.40;65.20
65568;DHT22;52211;50.154;8.682;2022-09-19T08:25:58;15.30;65.20
65568;DHT22;52211;50.154;8.682;2022-09-19T08:28:28;15.30;65.20
65568;DHT22;52211;50.154;8.682;2022-09-19T08:30:59;15.40;65.20
65568;DHT22;52211;50.154;8.682;2022-09-19T08:33:29;15.30;65.10
65568;DHT22;52211;50.154;8.682;2022-09-19T08:36:01;15.40;65.10
65568;DHT22;52211;50.154;8.682;2022-09-19T08:38:30;15.30;65.20
65568;DHT22;52211;50.154;8.682;2022-09-19T08:46:47;15.40;65.10
65568;DHT22;52211;50.154;8.682;2022-09-19T08:49:31;15.40;65.10
65568;DHT22;52211;50.154;8.682;2022-09-19T08:52:26;15.40;65.10
65568;DHT22;52211;50.154;8.682;2022-09-19T08:55:16;15.40;65.20
65568;DHT22;52211;50.154;8.682;2022-09-19T08:57:54;15.50;65.40
65568;DHT22;52211;50.154;8.682;2022-09-19T09:00:31;15.60;65.20
65568;DHT22;52211;50.154;8.682;2022-09-19T09:03:42;15.70;65.20
65568;DHT22;52211;50.154;8.682;2022-09-19T09:21:47;15.90;64.40
65568;DHT22;52211;50.154;8.682;2022-09-19T09:24:33;15.90;65.00
65568;DHT22;52211;50.154;8.682;2022-09-19T09:27:12;15.90;64.30
65568;DHT22;52211;50.154;8.682;2022-09-19T09:29:54;16.00;64.30
65568;DHT22;52211;50.154;8.682;2022-09-19T09:32:34;16.00;64.10
65568;DHT22;52211;50.154;8.682;2022-09-19T09:38:19;16.00;64.00
65568;DHT22;52211;50.154;8.682;2022-09-19T09:40:54;16.00;64.10
65568;DHT22;52211;50.154;8.682;2022-09-19T09:49:17;16.10;64.20
65568;DHT22;52211;50.154;8.682;2022-09-19T10:00:25;16.40;64.20
65568;DHT22;52211;50.154;8.682;2022-09-19T10:09:45;16.70;64.00
65568;DHT22;52211;50.154;8.682;2022-09-19T10:12:33;16.80;63.80
65568;DHT22;52211;50.154;8.682;2022-09-19T10:15:23;16.80;63.80
65568;DHT22;52211;50.154;8.682;2022-09-19T10:18:05;16.90;63.70
65568;DHT22;52211;50.154;8.682;2022-09-19T10:20:45;17.00;63.50
65568;DHT22;52211;50.154;8.682;2022-09-19T10:23:28;17.20;63.80
65568;DHT22;52211;50.154;8.682;2022-09-19T10:26:02;17.30;63.30
65568;DHT22;52211;50.154;8.682;2022-09-19T10:28:37;17.50;63.60
65568;DHT22;52211;50.154;8.682;2022-09-19T10:31:28;17.70;63.40
65568;DHT22;52211;50.154;8.682;2022-09-19T10:34:02;17.90;62.40
65568;DHT22;52211;50.154;8.682;2022-09-19T10:36:44;18.00;62.70
65568;DHT22;52211;50.154;8.682;2022-09-19T10:39:14;18.10;62.20
65568;DHT22;52211;50.154;8.682;2022-09-19T10:41:46;18.20;62.40
65568;DHT22;52211;50.154;8.682;2022-09-19T10:44:22;18.30;62.20
65568;DHT22;52211;50.154;8.682;2022-09-19T10:47:00;18.40;62.00
65568;DHT22;52211;50.154;8.682;2022-09-19T10:49:45;18.50;61.30
65568;DHT22;52211;50.154;8.682;2022-09-19T10:52:22;18.50;61.00
65568;DHT22;52211;50.154;8.682;2022-09-19T10:55:17;18.60;60.80
65568;DHT22;52211;50.154;8.682;2022-09-19T10:57:55;18.60;61.20
65568;DHT22;52211;50.154;8.682;2022-09-19T11:03:26;18.80;60.40
65568;DHT22;52211;50.154;8.682;2022-09-19T11:06:15;19.00;60.80
65568;DHT22;52211;50.154;8.682;2022-09-19T11:08:49;19.20;60.10
65568;DHT22;52211;50.154;8.682;2022-09-19T11:11:43;19.30;60.40
65568;DHT22;52211;50.154;8.682;2022-09-19T11:14:31;19.50;60.20
65568;DHT22;52211;50.154;8.682;2022-09-19T11:23:39;19.90;58.90
65568;DHT22;52211;50.154;8.682;2022-09-19T11:32:13;20.30;57.80
65568;DHT22;52211;50.154;8.682;2022-09-19T11:35:22;20.30;57.70
65568;DHT22;52211;50.154;8.682;2022-09-19T11:54:14;21.10;55.80
65568;DHT22;52211;50.154;8.682;2022-09-19T12:00:08;21.10;55.80
65568;DHT22;52211;50.154;8.682;2022-09-19T12:03:02;21.10;55.30
65568;DHT22;52211;50.154;8.682;2022-09-19T12:11:02;21.30;55.20
65568;DHT22;52211;50.154;8.682;2022-09-19T12:13:42;21.40;55.40
65568;DHT22;52211;50.154;8.682;2022-09-19T12:16:34;21.40;55.30
65568;DHT22;52211;50.154;8.682;2022-09-19T12:19:08;21.50;53.80
65568;DHT22;52211;50.154;8.682;2022-09-19T12:21:49;21.50;53.40
65568;DHT22;52211;50.154;8.682;2022-09-19T12:24:26;21.50;53.50
65568;DHT22;52211;50.154;8.682;2022-09-19T12:30:23;21.50;53.70
65568;DHT22;52211;50.154;8.682;2022-09-19T12:33:16;21.60;53.90
65568;DHT22;52211;50.154;8.682;2022-09-19T12:36:19;21.80;53.00
65568;DHT22;52211;50.154;8.682;2022-09-19T12:39:09;21.80;52.50
65568;DHT22;52211;50.154;8.682;2022-09-19T12:48:31;21.90;53.10
65568;DHT22;52211;50.154;8.682;2022-09-19T12:51:10;21.80;52.20
65568;DHT22;52211;50.154;8.682;2022-09-19T12:53:51;21.80;51.90
65568;DHT22;52211;50.154;8.682;2022-09-19T12:56:44;21.90;52.30
65568;DHT22;52211;50.154;8.682;2022-09-19T12:59:21;22.10;52.80
65568;DHT22;52211;50.154;8.682;2022-09-19T13:02:04;22.50;52.60
65568;DHT22;52211;50.154;8.682;2022-09-19T13:05:03;22.80;51.90
65568;DHT22;52211;50.154;8.682;2022-09-19T13:08:04;23.20;52.40
65568;DHT22;52211;50.154;8.682;2022-09-19T13:10:39;23.60;51.60
65568;DHT22;52211;50.154;8.682;2022-09-19T13:15:57;24.00;48.80
65568;DHT22;52211;50.154;8.682;2022-09-19T13:18:36;24.00;48.70
65568;DHT22;52211;50.154;8.682;2022-09-19T13:21:48;24.10;48.40
65568;DHT22;52211;50.154;8.682;2022-09-19T13:27:08;23.90;47.60
65568;DHT22;52211;50.154;8.682;2022-09-19T13:32:28;23.80;48.30
65568;DHT22;52211;50.154;8.682;2022-09-19T13:35:25;23.80;47.90
65568;DHT22;52211;50.154;8.682;2022-09-19T13:38:23;23.90;48.50
65568;DHT22;52211;50.154;8.682;2022-09-19T13:41:40;24.20;48.00
65568;DHT22;52211;50.154;8.682;2022-09-19T13:44:37;24.60;49.20
65568;DHT22;52211;50.154;8.682;2022-09-19T13:49:47;25.40;48.10
65568;DHT22;52211;50.154;8.682;2022-09-19T13:52:30;25.70;47.00
65568;DHT22;52211;50.154;8.682;2022-09-19T13:55:17;26.00;46.80
65568;DHT22;52211;50.154;8.682;2022-09-19T13:58:27;26.30;46.20
65568;DHT22;52211;50.154;8.682;2022-09-19T14:03:53;26.90;45.30
65568;DHT22;52211;50.154;8.682;2022-09-19T14:06:58;26.80;44.50
65568;DHT22;52211;50.154;8.682;2022-09-19T14:09:51;26.50;43.70
65568;DHT22;52211;50.154;8.682;2022-09-19T14:23:12;24.10;43.80
65568;DHT22;52211;50.154;8.682;2022-09-19T14:37:55;22.20;45.40
65568;DHT22;52211;50.154;8.682;2022-09-19T14:40:40;21.80;46.00
65568;DHT22;52211;50.154;8.682;2022-09-19T14:46:27;21.00;46.90
65568;DHT22;52211;50.154;8.682;2022-09-19T14:52:14;20.20;47.80
65568;DHT22;52211;50.154;8.682;2022-09-19T14:55:15;20.00;48.00
65568;DHT22;52211;50.154;8.682;2022-09-19T14:57:49;19.70;48.30
65568;DHT22;52211;50.154;8.682;2022-09-19T15:00:29;19.40;48.70
65568;DHT22;52211;50.154;8.682;2022-09-19T15:03:10;19.10;49.00
65568;DHT22;52211;50.154;8.682;2022-09-19T15:05:38;19.00;49.60
65568;DHT22;52211;50.154;8.682;2022-09-19T15:08:24;18.90;49.80
65568;DHT22;52211;50.154;8.682;2022-09-19T15:11:01;18.70;50.00
65568;DHT22;52211;50.154;8.682;2022-09-19T15:13:30;18.60;50.20
65568;DHT22;52211;50.154;8.682;2022-09-19T15:16:08;18.60;50.40
65568;DHT22;52211;50.154;8.682;2022-09-19T15:18:41;18.50;50.60
65568;DHT22;52211;50.154;8.682;2022-09-19T15:21:22;18.40;50.70
65568;DHT22;52211;50.154;8.682;2022-09-19T15:23:57;18.40;50.80
65568;DHT22;52211;50.154;8.682;2022-09-19T15:26:30;18.40;50.90
65568;DHT22;52211;50.154;8.682;2022-09-19T15:29:31;18.40;50.80
65568;DHT22;52211;50.154;8.682;2022-09-19T15:32:27;18.30;50.60
65568;DHT22;52211;50.154;8.682;2022-09-19T15:35:05;18.30;50.70
65568;DHT22;52211;50.154;8.682;2022-09-19T15:37:37;18.30;50.70
65568;DHT22;52211;50.154;8.682;2022-09-19T15:40:20;18.30;50.60
65568;DHT22;52211;50.154;8.682;2022-09-19T15:42:52;18.30;50.70
65568;DHT22;52211;50.154;8.682;2022-09-19T15:45:34;18.30;50.70
65568;DHT22;52211;50.154;8.682;2022-09-19T15:48:10;18.30;50.70
65568;DHT22;52211;50.154;8.682;2022-09-19T15:51:31;18.30;50.60
65568;DHT22;52211;50.154;8.682;2022-09-19T15:54:03;18.30;50.60
65568;DHT22;52211;50.154;8.682;2022-09-19T15:56:54;18.30;50.60
65568;DHT22;52211;50.154;8.682;2022-09-19T15:59:36;18.30;50.50
65568;DHT22;52211;50.154;8.682;2022-09-19T16:02:19;18.30;49.80
65568;DHT22;52211;50.154;8.682;2022-09-19T16:05:04;18.20;49.20
65568;DHT22;52211;50.154;8.682;2022-09-19T16:07:46;18.20;49.40
65568;DHT22;52211;50.154;8.682;2022-09-19T16:10:37;18.20;49.90
65568;DHT22;52211;50.154;8.682;2022-09-19T16:13:37;18.10;49.70
65568;DHT22;52211;50.154;8.682;2022-09-19T16:16:33;18.10;49.60
65568;DHT22;52211;50.154;8.682;2022-09-19T16:21:58;18.00;49.60
65568;DHT22;52211;50.154;8.682;2022-09-19T16:24:34;18.00;50.00
65568;DHT22;52211;50.154;8.682;2022-09-19T16:27:13;18.00;50.10
65568;DHT22;52211;50.154;8.682;2022-09-19T16:29:47;18.00;50.00
65568;DHT22;52211;50.154;8.682;2022-09-19T16:32:19;17.90;49.80
65568;DHT22;52211;50.154;8.682;2022-09-19T16:35:01;17.90;49.60
65568;DHT22;52211;50.154;8.682;2022-09-19T16:37:34;17.90;49.70
65568;DHT22;52211;50.154;8.682;2022-09-19T16:40:07;17.90;49.80
65568;DHT22;52211;50.154;8.682;2022-09-19T16:42:46;17.90;49.70
65568;DHT22;52211;50.154;8.682;2022-09-19T16:47:48;17.90;49.60
65568;DHT22;52211;50.154;8.682;2022-09-19T16:50:21;17.90;49.70
65568;DHT22;52211;50.154;8.682;2022-09-19T16:52:55;17.90;49.70
65568;DHT22;52211;50.154;8.682;2022-09-19T16:55:37;17.90;49.70
65568;DHT22;52211;50.154;8.682;2022-09-19T16:58:13;17.80;49.50
65568;DHT22;52211;50.154;8.682;2022-09-19T17:00:45;17.80;49.60
65568;DHT22;52211;50.154;8.682;2022-09-19T17:03:14;17.80;49.90
65568;DHT22;52211;50.154;8.682;2022-09-19T17:05:44;17.80;49.90
65568;DHT22;52211;50.154;8.682;2022-09-19T17:08:11;17.80;49.90
65568;DHT22;52211;50.154;8.682;2022-09-19T17:10:39;17.80;49.90
65568;DHT22;52211;50.154;8.682;2022-09-19T17:13:11;17.80;49.80
65568;DHT22;52211;50.154;8.682;2022-09-19T17:15:56;17.70;49.70
65568;DHT22;52211;50.154;8.682;2022-09-19T17:18:28;17.70;49.60
65568;DHT22;52211;50.154;8.682;2022-09-19T17:20:58;17.70;49.80
65568;DHT22;52211;50.154;8.682;2022-09-19T17:23:28;17.60;49.80
65568;DHT22;52211;50.154;8.682;2022-09-19T17:25:59;17.60;50.00
65568;DHT22;52211;50.154;8.682;2022-09-19T17:28:27;17.50;49.90
65568;DHT22;52211;50.154;8.682;2022-09-19T17:30:58;17.50;50.00
65568;DHT22;52211;50.154;8.682;2022-09-19T17:33:27;17.50;50.00
65568;DHT22;52211;50.154;8.682;2022-09-19T17:35:56;17.40;50.00
65568;DHT22;52211;50.154;8.682;2022-09-19T17:38:28;17.40;50.10
65568;DHT22;52211;50.154;8.682;2022-09-19T17:40:56;17.30;50.10
65568;DHT22;52211;50.154;8.682;2022-09-19T17:43:26;17.30;50.20
65568;DHT22;52211;50.154;8.682;2022-09-19T17:45:59;17.20;50.20
65568;DHT22;52211;50.154;8.682;2022-09-19T17:48:31;17.10;50.10
65568;DHT22;52211;50.154;8.682;2022-09-19T17:51:21;17.10;50.20
65568;DHT22;52211;50.154;8.682;2022-09-19T17:53:51;17.00;50.20
65568;DHT22;52211;50.154;8.682;2022-09-19T17:56:23;16.90;50.20
65568;DHT22;52211;50.154;8.682;2022-09-19T17:59:01;16.90;50.30
65568;DHT22;52211;50.154;8.682;2022-09-19T18:01:31;16.80;50.50
65568;DHT22;52211;50.154;8.682;2022-09-19T18:04:17;16.80;50.50
65568;DHT22;52211;50.154;8.682;2022-09-19T18:06:46;16.70;50.60
65568;DHT22;52211;50.154;8.682;2022-09-19T18:09:15;16.60;50.60
65568;DHT22;52211;50.154;8.682;2022-09-19T18:11:45;16.60;50.80
65568;DHT22;52211;50.154;8.682;2022-09-19T18:14:17;16.50;50.80
65568;DHT22;52211;50.154;8.682;2022-09-19T18:16:44;16.50;51.00
65568;DHT22;52211;50.154;8.682;2022-09-19T18:19:12;16.50;51.10
65568;DHT22;52211;50.154;8.682;2022-09-19T18:21:41;16.40;51.10
65568;DHT22;52211;50.154;8.682;2022-09-19T18:24:08;16.40;51.20
65568;DHT22;52211;50.154;8.682;2022-09-19T18:26:36;16.40;51.20
65568;DHT22;52211;50.154;8.682;2022-09-19T18:29:06;16.40;51.30
65568;DHT22;52211;50.154;8.682;2022-09-19T18:31:41;16.30;51.30
65568;DHT22;52211;50.154;8.682;2022-09-19T18:34:09;16.30;51.30
65568;DHT22;52211;50.154;8.682;2022-09-19T18:36:43;16.30;51.40
65568;DHT22;52211;50.154;8.682;2022-09-19T18:39:09;16.20;51.60
65568;DHT22;52211;50.154;8.682;2022-09-19T18:41:41;16.20;51.50
65568;DHT22;52211;50.154;8.682;2022-09-19T18:44:07;16.20;51.70
65568;DHT22;52211;50.154;8.682;2022-09-19T18:46:34;16.20;51.80
65568;DHT22;52211;50.154;8.682;2022-09-19T18:49:04;16.10;52.50
65568;DHT22;52211;50.154;8.682;2022-09-19T18:51:33;16.10;51.90
65568;DHT22;52211;50.154;8.682;2022-09-19T18:54:02;16.10;52.10
65568;DHT22;52211;50.154;8.682;2022-09-19T18:56:32;16.10;52.10
65568;DHT22;52211;50.154;8.682;2022-09-19T18:59:01;16.10;52.20
65568;DHT22;52211;50.154;8.682;2022-09-19T19:01:30;16.10;52.30
65568;DHT22;52211;50.154;8.682;2022-09-19T19:04:01;16.10;52.30
65568;DHT22;52211;50.154;8.682;2022-09-19T19:06:28;16.10;52.30
65568;DHT22;52211;50.154;8.682;2022-09-19T19:08:58;16.10;52.40
65568;DHT22;52211;50.154;8.682;2022-09-19T19:11:32;16.10;52.40
65568;DHT22;52211;50.154;8.682;2022-09-19T19:14:02;16.10;52.50
65568;DHT22;52211;50.154;8.682;2022-09-19T19:16:29;16.10;52.50
65568;DHT22;52211;50.154;8.682;2022-09-19T19:19:03;16.10;52.60
65568;DHT22;52211;50.154;8.682;2022-09-19T19:21:35;16.10;52.80
65568;DHT22;52211;50.154;8.682;2022-09-19T19:24:15;16.10;52.80